Time;durP1;ratioP1;P1;durP2;ratioP2;P2;SDS_P1;SDS_P2;PMS_P1;PMS_P2;Temp;Humidity;BMP_temperature;BMP_pressure;BME280_temperature;BME280_humidity;BME280_pressure;Samples;Min_cycle;Max_cycle;Signal;HPM_P1;HPM_P2
2021/08/15 00:02:02;;;;;;;6.97;5.85;;;;;;;16.68;59.51;93956.41;5090916;28;20024;-59
2021/08/15 00:04:28;;;;;;;7.75;5.72;;;;;;;16.59;59.96;93946.66;5089907;28;20019;-58
2021/08/15 00:06:53;;;;;;;9.48;5.78;;;;;;;16.54;60.33;93956.03;5095043;28;20062;-58
2021/08/15 00:09:19;;;;;;;7.68;6.85;;;;;;;16.42;60.41;93946.66;5105299;28;20095;-59
2021/08/15 00:11:47;;;;;;;10.55;6.13;;;;;;;16.43;60.46;93953.00;5097623;28;20054;-55
2021/08/15 00:14:12;;;;;;;8.70;6.20;;;;;;;16.25;60.53;93948.72;5094565;28;20496;-55
2021/08/15 00:16:37;;;;;;;10.13;6.30;;;;;;;16.32;60.93;93954.22;5110942;28;20026;-55
2021/08/15 00:19:06;;;;;;;8.65;5.88;;;;;;;16.35;61.12;93949.56;5110001;28;20024;-54
2021/08/15 00:21:36;;;;;;;13.80;5.78;;;;;;;16.29;60.73;93949.03;5090567;28;20493;-57
2021/08/15 00:24:03;;;;;;;6.68;5.95;;;;;;;16.22;60.95;93952.69;5093360;28;20028;-58
2021/08/15 00:26:28;;;;;;;8.10;6.07;;;;;;;16.29;61.01;93949.03;5109896;28;20039;-58
2021/08/15 00:28:54;;;;;;;9.80;6.07;;;;;;;16.25;60.82;93960.63;5111052;28;20565;-57
2021/08/15 00:31:19;;;;;;;6.57;5.97;;;;;;;16.37;60.66;93950.44;5110696;28;20035;-57
2021/08/15 00:33:45;;;;;;;7.38;6.43;;;;;;;16.15;60.65;93951.44;5109827;28;20077;-57
2021/08/15 00:36:10;;;;;;;8.25;6.07;;;;;;;16.10;61.30;93949.63;5110632;28;20104;-57
2021/08/15 00:38:36;;;;;;;6.40;5.80;;;;;;;16.06;61.09;93951.34;5110738;28;20036;-57
2021/08/15 00:41:02;;;;;;;10.90;6.75;;;;;;;16.01;61.21;93947.50;5109445;28;20815;-57
2021/08/15 00:43:31;;;;;;;7.68;6.35;;;;;;;16.08;61.32;93943.16;5108781;28;20512;-57
2021/08/15 00:45:57;;;;;;;9.23;6.68;;;;;;;16.02;61.82;93948.97;5110811;28;20067;-58
2021/08/15 00:48:23;;;;;;;8.60;6.72;;;;;;;15.97;61.82;93940.84;5110647;28;20024;-60
2021/08/15 00:50:48;;;;;;;10.75;7.60;;;;;;;15.96;62.08;93954.03;5099971;28;20416;-59
2021/08/15 00:53:14;;;;;;;8.70;6.57;;;;;;;15.84;62.43;93948.22;5090290;28;20028;-59
2021/08/15 00:55:39;;;;;;;7.30;6.60;;;;;;;15.81;62.24;93946.56;5102208;28;20042;-59
2021/08/15 00:58:08;;;;;;;9.25;6.53;;;;;;;15.79;62.46;93943.63;5111027;28;20500;-59
2021/08/15 01:00:34;;;;;;;7.93;6.47;;;;;;;15.81;62.72;93941.00;5110741;28;20038;-60
2021/08/15 01:02:59;;;;;;;13.85;6.82;;;;;;;15.89;62.56;93946.50;5110746;28;20070;-59
2021/08/15 01:05:25;;;;;;;10.93;6.82;;;;;;;15.79;62.61;93951.22;5102765;28;20058;-59
2021/08/15 01:07:50;;;;;;;9.82;6.60;;;;;;;15.75;62.67;93948.13;5090175;28;20048;-59
2021/08/15 01:10:17;;;;;;;7.05;6.35;;;;;;;15.80;62.37;93949.94;5092787;28;20035;-59
2021/08/15 01:12:43;;;;;;;6.10;5.50;;;;;;;15.77;61.97;93949.03;5100535;28;20080;-59
2021/08/15 01:15:10;;;;;;;8.10;6.40;;;;;;;15.80;61.74;93950.69;5098181;28;20016;-59
2021/08/15 01:17:35;;;;;;;9.20;6.30;;;;;;;15.68;61.73;93941.31;5089930;28;20470;-59
2021/08/15 01:20:01;;;;;;;8.82;6.65;;;;;;;15.70;61.97;93946.31;5089809;28;20115;-59
2021/08/15 01:22:27;;;;;;;6.80;6.10;;;;;;;15.50;62.23;93927.94;5089725;28;20032;-59
2021/08/15 01:24:53;;;;;;;11.15;5.93;;;;;;;15.58;62.33;93936.94;5089737;28;20111;-57
2021/08/15 01:27:20;;;;;;;7.90;6.32;;;;;;;15.47;62.53;93938.16;5089911;28;20102;-57
2021/08/15 01:29:46;;;;;;;8.73;7.25;;;;;;;15.54;62.79;93934.56;5089717;28;20028;-56
2021/08/15 01:32:13;;;;;;;6.97;6.25;;;;;;;15.59;62.80;93941.22;5089998;28;20024;-57
2021/08/15 01:34:38;;;;;;;10.25;6.43;;;;;;;15.51;63.15;93934.97;5095579;28;20024;-57
2021/08/15 01:37:04;;;;;;;7.75;5.50;;;;;;;15.49;62.06;93938.31;5094648;28;20081;-57
2021/08/15 01:39:29;;;;;;;10.70;6.25;;;;;;;15.41;62.47;93939.66;5092624;28;20401;-57
2021/08/15 01:41:55;;;;;;;7.13;6.00;;;;;;;15.36;62.59;93940.63;5098966;28;20024;-58
2021/08/15 01:44:20;;;;;;;6.90;6.13;;;;;;;15.35;62.02;93934.34;5097754;28;20031;-58
2021/08/15 01:46:45;;;;;;;6.93;6.25;;;;;;;15.36;62.14;93937.84;5095362;28;20046;-59
2021/08/15 01:49:11;;;;;;;7.10;6.40;;;;;;;15.32;62.60;93924.34;5106690;28;20015;-57
2021/08/15 01:51:36;;;;;;;13.13;6.03;;;;;;;15.37;63.33;93939.34;5104188;28;20455;-57
2021/08/15 01:54:04;;;;;;;7.43;6.20;;;;;;;15.29;62.96;93935.88;5100761;28;20446;-58
2021/08/15 01:56:30;;;;;;;7.35;6.35;;;;;;;15.15;62.82;93938.19;5099043;28;20098;-57
2021/08/15 01:58:55;;;;;;;7.22;5.95;;;;;;;15.09;63.42;93940.47;5104559;28;20088;-58
2021/08/15 02:01:22;;;;;;;7.88;6.43;;;;;;;15.04;63.29;93947.72;5104766;28;20019;-59
2021/08/15 02:03:49;;;;;;;8.40;6.90;;;;;;;14.99;63.53;93943.13;5099254;28;20077;-59
2021/08/15 02:06:15;;;;;;;8.93;7.57;;;;;;;14.99;63.81;93947.94;5104462;28;20473;-59
2021/08/15 02:08:41;;;;;;;8.52;7.05;;;;;;;14.96;64.22;93954.63;5113796;28;20020;-59
2021/08/15 02:11:06;;;;;;;7.55;6.35;;;;;;;14.93;64.55;93950.94;5105196;27;20492;-59
2021/08/15 02:13:32;;;;;;;10.65;6.68;;;;;;;14.86;64.88;93951.72;5105151;28;20024;-59
2021/08/15 02:15:57;;;;;;;9.48;7.00;;;;;;;14.91;64.62;93953.56;5102012;28;20019;-59
2021/08/15 02:18:23;;;;;;;9.88;6.30;;;;;;;14.85;64.04;93947.47;5107486;28;20088;-59
2021/08/15 02:20:48;;;;;;;10.73;6.93;;;;;;;14.70;64.38;93947.56;5113224;28;20027;-59
2021/08/15 02:23:14;;;;;;;10.02;6.95;;;;;;;14.59;64.63;93941.69;5104572;28;20016;-59
2021/08/15 02:25:39;;;;;;;13.15;7.47;;;;;;;14.64;64.70;93940.75;5101461;28;20023;-59
2021/08/15 02:28:06;;;;;;;8.05;7.25;;;;;;;14.73;64.84;93942.91;5103528;28;20034;-59
2021/08/15 02:30:32;;;;;;;9.85;6.80;;;;;;;14.78;63.81;93947.50;5103178;28;20032;-59
2021/08/15 02:32:58;;;;;;;7.55;6.75;;;;;;;14.78;63.95;93939.91;5104271;27;20012;-58
2021/08/15 02:35:25;;;;;;;7.80;6.57;;;;;;;14.77;63.92;93938.44;5103016;28;20022;-58
2021/08/15 02:37:52;;;;;;;11.90;7.43;;;;;;;14.62;64.33;93938.50;5102652;28;20447;-58
2021/08/15 02:40:19;;;;;;;9.38;5.95;;;;;;;14.68;64.26;93935.53;5097200;28;20114;-58
2021/08/15 02:42:47;;;;;;;8.93;6.43;;;;;;;14.68;64.02;93929.97;5103551;28;20089;-58
2021/08/15 02:45:14;;;;;;;8.68;6.68;;;;;;;14.68;64.00;93935.53;5104311;28;20016;-57
2021/08/15 02:47:40;;;;;;;7.60;6.80;;;;;;;14.68;64.09;93933.50;5101307;28;20019;-57
2021/08/15 02:50:07;;;;;;;7.47;6.50;;;;;;;14.59;64.24;93942.44;5097362;28;20576;-58
2021/08/15 02:52:32;;;;;;;8.02;6.78;;;;;;;14.53;63.83;93933.53;5097198;28;20485;-58
2021/08/15 02:54:57;;;;;;;9.43;7.35;;;;;;;14.35;64.27;93943.09;5099949;28;20081;-59
2021/08/15 02:57:23;;;;;;;7.95;5.93;;;;;;;14.34;64.20;93944.38;5102302;28;20077;-59
2021/08/15 02:59:49;;;;;;;10.63;7.25;;;;;;;14.31;64.21;93937.19;5100359;28;20508;-59
2021/08/15 03:02:16;;;;;;;9.25;6.93;;;;;;;14.03;65.24;93940.94;5098191;28;20027;-59
2021/08/15 03:04:43;;;;;;;7.65;6.65;;;;;;;14.10;65.43;93937.41;5100383;28;20020;-57
2021/08/15 03:07:09;;;;;;;8.38;7.30;;;;;;;14.12;65.19;93937.56;5099435;28;20066;-56
2021/08/15 03:09:34;;;;;;;8.85;7.40;;;;;;;13.97;66.10;93942.44;5101215;28;20481;-57
2021/08/15 03:12:00;;;;;;;9.93;7.80;;;;;;;13.94;66.47;93938.00;5101500;28;20051;-57
2021/08/15 03:14:25;;;;;;;9.80;7.35;;;;;;;14.04;65.50;93941.66;5099563;28;20095;-57
2021/08/15 03:16:51;;;;;;;8.52;7.70;;;;;;;14.14;65.25;93946.06;5101395;28;20084;-57
2021/08/15 03:19:16;;;;;;;11.38;7.82;;;;;;;13.85;65.84;93933.03;5100685;28;20043;-57
2021/08/15 03:21:42;;;;;;;9.38;8.02;;;;;;;14.02;65.88;93942.25;5099579;28;20028;-57
2021/08/15 03:24:08;;;;;;;11.13;8.75;;;;;;;14.08;66.31;93937.22;5101409;28;20013;-55
2021/08/15 03:26:36;;;;;;;12.57;8.57;;;;;;;14.07;66.22;93938.53;5100404;28;20043;-55
2021/08/15 03:29:02;;;;;;;8.65;7.85;;;;;;;14.10;66.08;93942.94;5099504;28;20055;-56
2021/08/15 03:31:28;;;;;;;9.85;8.20;;;;;;;14.10;65.93;93939.44;5101339;28;20023;-58
2021/08/15 03:33:53;;;;;;;7.93;6.80;;;;;;;14.01;66.33;93940.75;5100000;28;20056;-58
2021/08/15 03:36:18;;;;;;;9.48;7.15;;;;;;;13.94;66.96;93943.56;5100032;28;20019;-57
2021/08/15 03:38:44;;;;;;;11.55;7.72;;;;;;;13.96;67.12;93940.97;5098887;28;20051;-60
2021/08/15 03:41:10;;;;;;;13.00;7.10;;;;;;;13.95;66.35;93942.25;5101493;28;20012;-59
2021/08/15 03:43:35;;;;;;;8.00;6.68;;;;;;;13.83;66.31;93946.72;5100114;28;20043;-59
2021/08/15 03:46:01;;;;;;;7.72;6.80;;;;;;;13.89;65.78;93945.22;5099337;28;20038;-59
2021/08/15 03:48:26;;;;;;;8.02;7.22;;;;;;;14.03;65.26;93946.50;5100959;28;20027;-59
2021/08/15 03:50:52;;;;;;;11.80;6.55;;;;;;;14.09;65.56;93949.06;5099427;28;20027;-59
2021/08/15 03:53:17;;;;;;;8.25;7.32;;;;;;;14.02;65.24;93947.78;5099918;28;20027;-59
2021/08/15 03:55:43;;;;;;;9.85;5.70;;;;;;;13.97;64.87;93948.00;5101129;28;20470;-59
2021/08/15 03:58:08;;;;;;;24.73;6.50;;;;;;;14.04;64.24;93947.22;5098794;28;20028;-59
2021/08/15 04:00:39;;;;;;;11.20;7.32;;;;;;;13.89;63.68;93948.00;5100222;28;20027;-59
2021/08/15 04:03:05;;;;;;;12.50;6.32;;;;;;;13.78;64.42;93951.16;5099302;28;20032;-59
2021/08/15 04:05:30;;;;;;;8.63;6.80;;;;;;;13.78;64.79;93947.66;5099282;27;20038;-61
2021/08/15 04:07:56;;;;;;;15.07;6.72;;;;;;;13.81;64.98;93941.00;5100368;28;20061;-61
2021/08/15 04:10:21;;;;;;;8.20;6.45;;;;;;;13.75;65.79;93943.97;5098119;28;20023;-62
2021/08/15 04:12:47;;;;;;;24.45;8.15;;;;;;;13.64;66.28;93945.06;5089955;28;20049;-64
2021/08/15 04:15:12;;;;;;;14.00;7.22;;;;;;;13.88;65.60;93937.47;5090959;28;20477;-64
2021/08/15 04:17:38;;;;;;;10.95;7.20;;;;;;;13.89;65.81;93942.47;5090813;28;20520;-63
2021/08/15 04:20:04;;;;;;;11.70;6.72;;;;;;;13.99;65.90;93940.56;5090111;28;20409;-64
2021/08/15 04:22:29;;;;;;;18.33;7.90;;;;;;;14.03;65.65;93940.94;5090501;28;20027;-64
2021/08/15 04:24:54;;;;;;;9.65;6.38;;;;;;;14.08;65.09;93953.13;5090681;28;20032;-68
2021/08/15 04:27:20;;;;;;;8.32;5.72;;;;;;;14.07;65.67;93943.34;5090720;28;20059;-68
2021/08/15 04:29:45;;;;;;;6.90;6.20;;;;;;;14.11;65.33;93930.56;5090442;28;20473;-65
2021/08/15 04:32:11;;;;;;;8.23;6.50;;;;;;;14.17;65.07;93933.88;5090348;28;20028;-65
2021/08/15 04:34:36;;;;;;;7.65;6.53;;;;;;;14.22;65.00;93946.06;5090801;28;20024;-64
2021/08/15 04:37:04;;;;;;;9.68;6.65;;;;;;;14.25;65.34;93947.72;5110883;28;20493;-65
2021/08/15 04:39:29;;;;;;;9.32;6.60;;;;;;;14.26;65.38;93940.88;5110750;27;20465;-64
2021/08/15 04:41:55;;;;;;;8.25;6.97;;;;;;;14.30;65.77;93952.34;5092188;28;20028;-64
2021/08/15 04:44:20;;;;;;;7.22;6.50;;;;;;;14.34;66.12;93949.94;5090441;28;20024;-59
2021/08/15 04:46:45;;;;;;;7.68;6.55;;;;;;;14.39;66.41;93944.19;5090502;28;20036;-58
2021/08/15 04:49:11;;;;;;;7.97;6.40;;;;;;;14.50;65.89;93943.03;5090350;28;20473;-58
2021/08/15 04:51:36;;;;;;;7.93;6.57;;;;;;;14.52;66.62;93945.97;5090008;28;20043;-58
2021/08/15 04:54:03;;;;;;;10.48;6.80;;;;;;;14.58;66.29;93952.06;5090345;28;20024;-58
2021/08/15 04:56:28;;;;;;;17.27;7.50;;;;;;;14.69;66.19;93951.63;5101162;28;20032;-57
2021/08/15 04:58:53;;;;;;;11.07;6.57;;;;;;;14.74;65.92;93942.34;5090307;28;20032;-56
2021/08/15 05:01:19;;;;;;;12.70;6.68;;;;;;;14.77;66.51;93949.53;5089828;28;20020;-57
2021/08/15 05:03:44;;;;;;;8.60;7.30;;;;;;;14.85;66.81;93946.72;5089849;28;20020;-57
2021/08/15 05:06:10;;;;;;;8.68;6.60;;;;;;;14.92;66.89;93949.47;5093671;28;20074;-57
2021/08/15 05:08:35;;;;;;;17.63;8.20;;;;;;;15.00;66.54;93950.16;5089847;28;20475;-58
2021/08/15 05:11:01;;;;;;;14.95;7.35;;;;;;;15.11;66.37;93957.31;5090130;28;20054;-58
2021/08/15 05:13:26;;;;;;;10.73;7.63;;;;;;;15.19;66.00;93944.84;5090066;28;20027;-58
2021/08/15 05:15:52;;;;;;;10.55;7.00;;;;;;;15.35;66.44;93947.50;5090102;28;20074;-58
2021/08/15 05:18:18;;;;;;;18.08;7.60;;;;;;;15.43;66.22;93943.38;5090020;28;20024;-58
2021/08/15 05:20:43;;;;;;;14.60;6.88;;;;;;;15.54;65.91;93944.97;5089713;28;20479;-58
2021/08/15 05:23:08;;;;;;;11.00;6.95;;;;;;;15.63;65.97;93952.69;5090004;28;20028;-58
2021/08/15 05:25:34;;;;;;;14.63;7.00;;;;;;;15.73;66.39;93956.31;5089967;28;20024;-58
2021/08/15 05:27:59;;;;;;;12.73;7.47;;;;;;;15.82;66.32;93961.25;5089937;28;20020;-59
2021/08/15 05:30:25;;;;;;;8.40;7.45;;;;;;;15.81;66.80;93959.75;5091839;28;20042;-58
2021/08/15 05:32:52;;;;;;;13.52;7.28;;;;;;;15.98;66.93;93957.00;5107013;28;20444;-58
2021/08/15 05:35:18;;;;;;;9.57;6.47;;;;;;;16.08;66.80;93952.25;5103768;28;20020;-58
2021/08/15 05:37:44;;;;;;;16.58;7.68;;;;;;;16.18;67.55;93960.69;5094461;28;20127;-58
2021/08/15 05:40:10;;;;;;;17.05;7.45;;;;;;;16.30;67.72;93953.31;5096813;28;20020;-58
2021/08/15 05:42:35;;;;;;;13.88;6.88;;;;;;;16.32;66.57;93959.78;5098622;28;20099;-58
2021/08/15 05:45:01;;;;;;;11.20;6.95;;;;;;;16.50;67.83;93963.34;5093723;28;20020;-58
2021/08/15 05:47:26;;;;;;;15.02;7.35;;;;;;;16.57;66.72;93962.50;5104514;28;20458;-58
2021/08/15 05:49:52;;;;;;;11.90;6.65;;;;;;;16.72;66.15;93965.09;5102422;28;20731;-58
2021/08/15 05:52:17;;;;;;;8.80;6.25;;;;;;;16.87;65.43;93962.13;5108251;28;20056;-58
2021/08/15 05:54:43;;;;;;;8.80;6.82;;;;;;;16.98;64.91;93963.66;5114054;28;20081;-58
2021/08/15 05:57:08;;;;;;;13.65;6.95;;;;;;;17.15;64.85;93960.81;5101511;28;20028;-59
2021/08/15 05:59:34;;;;;;;12.45;6.07;;;;;;;17.24;64.16;93952.47;5093183;28;20032;-59
2021/08/15 06:02:00;;;;;;;16.38;8.27;;;;;;;17.37;65.95;93956.94;5100612;28;20012;-58
2021/08/15 06:04:26;;;;;;;11.82;6.25;;;;;;;17.37;63.98;93932.56;5102777;28;20067;-58
2021/08/15 06:06:51;;;;;;;9.20;6.30;;;;;;;17.60;62.93;93953.84;5104509;28;20458;-59
2021/08/15 06:09:17;;;;;;;37.47;6.80;;;;;;;17.82;63.38;93947.13;5109080;28;20047;-59
2021/08/15 06:11:42;;;;;;;24.75;6.18;;;;;;;18.02;62.03;93945.84;5100831;28;20727;-57
2021/08/15 06:14:08;;;;;;;28.92;6.97;;;;;;;18.18;62.14;93947.78;5113720;28;20039;-60
2021/08/15 06:16:33;;;;;;;125.65;13.02;;;;;;;18.36;61.57;93945.59;5106416;28;20408;-63
2021/08/15 06:18:58;;;;;;;41.58;7.97;;;;;;;18.64;59.94;93939.28;5092813;28;20101;-60
2021/08/15 06:21:24;;;;;;;43.28;9.57;;;;;;;18.79;59.81;93927.78;5092724;28;20039;-50
2021/08/15 06:23:49;;;;;;;33.05;8.65;;;;;;;18.95;59.66;93936.56;5100518;28;20023;-50
2021/08/15 06:26:15;;;;;;;16.35;6.15;;;;;;;19.04;58.53;93935.81;5113636;28;20027;-48
2021/08/15 06:28:41;;;;;;;11.23;5.13;;;;;;;19.10;58.69;93932.72;5099880;28;20020;-50
2021/08/15 06:31:07;;;;;;;10.98;5.95;;;;;;;19.23;58.49;93938.56;5093481;28;20077;-49
2021/08/15 06:33:32;;;;;;;7.97;5.93;;;;;;;19.32;57.14;93931.44;5092788;28;20524;-50
2021/08/15 06:35:57;;;;;;;8.57;5.40;;;;;;;19.48;57.15;93929.81;5092695;28;20016;-51
2021/08/15 06:38:23;;;;;;;9.23;5.70;;;;;;;19.51;56.62;93923.03;5092639;28;20031;-48
2021/08/15 06:40:48;;;;;;;6.72;5.97;;;;;;;19.66;55.72;93931.78;5094224;28;20034;-49
2021/08/15 06:43:14;;;;;;;6.40;5.35;;;;;;;19.71;54.53;93924.38;5091890;28;20016;-49
2021/08/15 06:45:40;;;;;;;6.13;5.15;;;;;;;19.92;54.39;93924.44;5092677;28;20550;-49
2021/08/15 06:48:05;;;;;;;5.70;5.10;;;;;;;20.13;53.29;93921.63;5094560;28;20016;-51
2021/08/15 06:50:32;;;;;;;10.85;6.32;;;;;;;20.38;54.62;93932.38;5111147;28;20025;-51
2021/08/15 06:52:57;;;;;;;10.60;6.43;;;;;;;20.54;52.39;93925.03;5104292;28;20445;-48
2021/08/15 06:55:23;;;;;;;6.22;5.45;;;;;;;20.64;51.43;93922.88;5104351;28;20115;-51
2021/08/15 06:57:48;;;;;;;7.78;5.20;;;;;;;20.68;50.86;93925.91;5110668;28;20027;-49
2021/08/15 07:00:14;;;;;;;8.40;5.70;;;;;;;20.76;52.31;93915.25;5110121;28;20046;-49
2021/08/15 07:02:42;;;;;;;14.93;5.88;;;;;;;20.85;51.87;93914.41;5090333;28;20072;-49
2021/08/15 07:05:09;;;;;;;7.32;5.07;;;;;;;21.03;51.22;93914.84;5090242;28;20098;-49
2021/08/15 07:07:34;;;;;;;5.82;4.55;;;;;;;21.31;48.03;93910.97;5090142;28;20048;-48
2021/08/15 07:10:00;;;;;;;8.35;4.78;;;;;;;21.42;49.56;93915.88;5090575;28;20432;-51
2021/08/15 07:12:25;;;;;;;7.15;5.18;;;;;;;21.52;49.38;93908.09;5094932;28;20100;-52
2021/08/15 07:14:51;;;;;;;10.07;5.47;;;;;;;21.71;49.09;93913.44;5093271;28;20032;-49
2021/08/15 07:17:16;;;;;;;6.10;4.78;;;;;;;21.89;46.89;93911.03;5103530;28;20058;-49
2021/08/15 07:19:42;;;;;;;6.68;4.35;;;;;;;22.03;45.79;93911.09;5092827;27;20028;-49
2021/08/15 07:22:07;;;;;;;11.95;5.40;;;;;;;22.22;46.08;93902.41;5089660;28;20107;-50
2021/08/15 07:24:33;;;;;;;5.82;4.65;;;;;;;22.53;48.66;93903.53;5099602;28;20039;-49
2021/08/15 07:26:59;;;;;;;6.22;4.68;;;;;;;23.06;44.76;93895.97;5097937;28;20097;-49
2021/08/15 07:29:25;;;;;;;4.82;4.32;;;;;;;23.91;42.36;93901.25;5095520;28;20019;-48
2021/08/15 07:31:51;;;;;;;10.20;4.75;;;;;;;25.46;40.81;93899.72;5089214;28;20024;-48
2021/08/15 07:34:16;;;;;;;35.58;6.85;;;;;;;27.03;37.86;93892.38;5089240;28;20020;-48
2021/08/15 07:36:42;;;;;;;10.95;4.47;;;;;;;28.29;34.42;93890.06;5092171;28;20049;-49
2021/08/15 07:39:07;;;;;;;8.88;4.00;;;;;;;29.83;31.93;93893.69;5091703;28;20031;-48
2021/08/15 07:41:33;;;;;;;28.90;4.90;;;;;;;31.03;28.87;93890.59;5104778;28;20032;-51
2021/08/15 07:43:58;;;;;;;9.60;3.90;;;;;;;32.63;27.78;93883.41;5109436;28;20023;-49
2021/08/15 07:46:24;;;;;;;8.55;3.92;;;;;;;33.44;24.86;93883.38;5109051;28;20024;-49
2021/08/15 07:48:49;;;;;;;5.68;3.53;;;;;;;34.51;23.87;93884.13;5108553;28;20016;-49
2021/08/15 07:51:15;;;;;;;4.03;3.42;;;;;;;33.68;23.63;93885.88;5107921;28;20016;-48
2021/08/15 07:53:40;;;;;;;5.05;3.75;;;;;;;34.61;22.34;93881.41;5107919;28;20612;-49
2021/08/15 07:56:06;;;;;;;5.13;3.92;;;;;;;36.09;21.16;93873.28;5093621;28;20795;-49
2021/08/15 07:58:31;;;;;;;7.57;3.75;;;;;;;35.69;21.17;93879.50;5088531;28;20103;-48
2021/08/15 08:00:58;;;;;;;4.97;3.63;;;;;;;36.66;20.76;93882.16;5095212;28;20028;-49
2021/08/15 08:03:23;;;;;;;7.10;3.75;;;;;;;37.84;19.98;93873.63;5099935;28;20027;-49
2021/08/15 08:05:49;;;;;;;3.97;3.67;;;;;;;37.10;18.91;93876.50;5098162;28;20468;-49
2021/08/15 08:08:15;;;;;;;4.10;3.70;;;;;;;37.39;18.78;93874.38;5088671;28;20119;-47
2021/08/15 08:10:41;;;;;;;3.85;2.95;;;;;;;36.82;19.75;93867.81;5088579;28;20077;-49
2021/08/15 08:13:07;;;;;;;5.18;3.50;;;;;;;36.77;19.05;93875.72;5088330;28;20034;-50
2021/08/15 08:15:33;;;;;;;4.10;3.70;;;;;;;37.23;19.36;93870.03;5088489;28;20028;-51
2021/08/15 08:17:58;;;;;;;11.43;4.72;;;;;;;38.15;17.67;93877.16;5094241;28;20027;-48
2021/08/15 08:20:24;;;;;;;5.53;3.50;;;;;;;39.30;17.35;93868.66;5095351;28;20565;-49
2021/08/15 08:22:50;;;;;;;3.47;3.17;;;;;;;39.64;16.71;93864.03;5108566;28;20458;-49
2021/08/15 08:25:16;;;;;;;5.03;3.83;;;;;;;41.10;15.44;93863.81;5108560;28;20030;-49
2021/08/15 08:27:42;;;;;;;4.75;3.10;;;;;;;42.03;14.26;93868.81;5107424;28;20015;-49
2021/08/15 08:30:08;;;;;;;3.80;3.30;;;;;;;43.05;13.58;93862.41;5108500;28;20020;-50
2021/08/15 08:32:34;;;;;;;4.90;3.55;;;;;;;42.93;13.89;93864.13;5108730;28;20027;-48
2021/08/15 08:34:59;;;;;;;4.00;3.47;;;;;;;41.96;14.26;93856.59;5108947;28;20072;-57
2021/08/15 08:37:25;;;;;;;5.75;3.70;;;;;;;41.39;14.85;93862.63;5107594;28;20066;-51
2021/08/15 08:39:52;;;;;;;3.90;3.50;;;;;;;41.22;14.38;93860.72;5107614;28;20032;-50
2021/08/15 08:42:18;;;;;;;6.68;3.42;;;;;;;40.23;15.30;93858.41;5088146;28;20036;-48
2021/08/15 08:44:43;;;;;;;5.95;4.05;;;;;;;39.08;16.77;93853.63;5092107;28;20450;-50
2021/08/15 08:47:11;;;;;;;5.97;3.55;;;;;;;39.54;16.32;93847.50;5095179;28;20023;-50
2021/08/15 08:49:39;;;;;;;4.85;3.70;;;;;;;37.64;17.66;93849.88;5095838;28;20504;-51
2021/08/15 08:52:05;;;;;;;6.05;3.78;;;;;;;37.44;18.61;93844.13;5102177;28;20015;-50
2021/08/15 08:54:31;;;;;;;17.48;4.65;;;;;;;37.84;18.17;93841.19;5093901;28;20012;-50
2021/08/15 08:56:58;;;;;;;15.95;4.45;;;;;;;38.30;18.64;93846.09;5101462;28;20035;-51
2021/08/15 08:59:23;;;;;;;7.47;3.72;;;;;;;38.42;18.40;93835.22;5093283;28;20036;-55
2021/08/15 09:01:49;;;;;;;21.90;5.35;;;;;;;38.65;17.65;93842.34;5103075;28;20024;-54
2021/08/15 09:04:15;;;;;;;7.47;3.33;;;;;;;38.57;16.17;93830.13;5107899;28;20044;-53
2021/08/15 09:06:40;;;;;;;22.60;4.90;;;;;;;38.66;16.09;93829.31;5096397;28;20104;-54
2021/08/15 09:09:11;;;;;;;23.02;5.28;;;;;;;39.99;14.89;93827.56;5103166;28;20119;-53
2021/08/15 09:11:37;;;;;;;4.68;3.50;;;;;;;40.96;15.07;93821.28;5105818;28;20031;-53
2021/08/15 09:14:08;;;;;;;5.22;3.58;;;;;;;41.76;12.86;93818.56;5106621;28;20511;-53
2021/08/15 09:17:06;;;;;;;5.40;3.35;;;;;;;41.42;12.86;93817.66;5106178;28;20115;-55
2021/08/15 09:19:34;;;;;;;3.55;3.25;;;;;;;41.36;13.00;93825.75;5106206;28;20537;-54
2021/08/15 09:22:18;;;;;;;6.63;3.47;;;;;;;41.32;13.03;93820.03;5100760;28;20054;-55
2021/08/15 09:24:53;;;;;;;4.95;3.13;;;;;;;41.34;13.31;93817.09;5099960;28;20463;-54
2021/08/15 09:27:44;;;;;;;3.40;3.10;;;;;;;41.27;13.71;93812.84;5110075;28;20412;-52
2021/08/15 09:30:30;;;;;;;4.47;3.20;;;;;;;40.73;14.03;93817.25;5104278;28;20032;-54
2021/08/15 09:33:08;;;;;;;4.00;3.20;;;;;;;41.60;13.39;93810.13;5110018;28;20012;-53
2021/08/15 09:35:39;;;;;;;3.45;2.90;;;;;;;41.53;13.20;93813.13;5110290;28;20106;-52
2021/08/15 09:38:13;;;;;;;7.22;3.08;;;;;;;41.71;12.71;93811.41;5109842;28;20106;-55
2021/08/15 09:40:46;;;;;;;10.32;3.33;;;;;;;42.04;12.30;93801.31;5110171;28;20024;-55
2021/08/15 09:43:19;;;;;;;3.55;3.25;;;;;;;41.32;12.60;93809.16;5109994;28;20035;-54
2021/08/15 09:45:46;;;;;;;5.47;3.80;;;;;;;41.70;12.26;93810.66;5107936;28;20027;-53
2021/08/15 09:48:31;;;;;;;93.28;8.20;;;;;;;41.98;12.21;93800.72;5100803;28;20020;-52
2021/08/15 09:51:19;;;;;;;6.55;2.80;;;;;;;42.43;11.88;93792.56;5109866;28;20020;-54
2021/08/15 09:53:50;;;;;;;5.43;3.30;;;;;;;41.82;11.64;93798.88;5110089;28;20149;-50
2021/08/15 09:56:16;;;;;;;3.67;3.28;;;;;;;41.08;12.52;93791.41;5097488;28;20020;-52
2021/08/15 09:58:42;;;;;;;4.40;3.33;;;;;;;40.70;13.19;93795.56;5088157;28;20020;-54
2021/08/15 10:01:09;;;;;;;7.25;3.20;;;;;;;41.06;12.42;93788.53;5089491;28;20024;-53
2021/08/15 10:03:37;;;;;;;3.20;2.92;;;;;;;40.58;12.69;93787.78;5089399;28;20063;-55
2021/08/15 10:06:03;;;;;;;4.32;2.88;;;;;;;40.51;13.10;93780.66;5096368;28;20110;-56
2021/08/15 10:08:30;;;;;;;4.88;2.70;;;;;;;41.37;12.21;93775.72;5100414;28;20411;-52
2021/08/15 10:10:56;;;;;;;4.70;2.80;;;;;;;42.01;11.87;93770.19;5101218;28;20444;-53
2021/08/15 10:13:21;;;;;;;5.35;3.00;;;;;;;42.43;12.00;93765.72;5106268;28;20045;-54
2021/08/15 10:15:58;;;;;;;4.45;2.97;;;;;;;43.41;10.23;93768.53;5109588;28;20673;-55
2021/08/15 10:18:26;;;;;;;3.35;3.03;;;;;;;43.29;9.98;93766.66;5113002;28;20797;-56
2021/08/15 10:21:04;;;;;;;3.38;2.70;;;;;;;44.23;10.00;93763.41;5112233;28;20413;-56
2021/08/15 10:23:38;;;;;;;3.92;2.83;;;;;;;44.05;9.74;93763.97;5112238;28;20520;-55
2021/08/15 10:26:05;;;;;;;3.38;2.80;;;;;;;44.24;10.44;93756.13;5112934;27;20492;-59
2021/08/15 10:28:36;;;;;;;3.35;3.05;;;;;;;44.50;10.52;93759.75;5113244;28;20076;-59
2021/08/15 10:31:02;;;;;;;3.83;2.80;;;;;;;44.28;10.20;93750.19;5104700;28;20058;-59
2021/08/15 10:33:29;;;;;;;3.47;2.65;;;;;;;44.67;9.74;93754.88;5108692;28;20027;-59
2021/08/15 10:36:44;;;;;;;4.17;2.73;;;;;;;44.74;10.47;93745.16;5112769;28;20496;-60
2021/08/15 10:39:36;;;;;;;2.97;2.65;;;;;;;44.50;9.93;93739.38;5102401;28;20085;-58
2021/08/15 10:42:01;;;;;;;3.17;2.63;;;;;;;44.62;10.41;93744.84;5093974;28;20107;-58
2021/08/15 10:44:27;;;;;;;3.38;3.13;;;;;;;44.73;9.67;93740.09;5092785;28;20020;-58
2021/08/15 10:47:07;;;;;;;5.13;3.00;;;;;;;44.60;9.75;93739.06;5092470;28;20023;-58
2021/08/15 10:49:50;;;;;;;5.05;2.80;;;;;;;44.10;10.19;93730.31;5092449;28;20016;-58
2021/08/15 10:52:48;;;;;;;4.00;3.05;;;;;;;41.65;11.67;93731.00;5090622;28;20038;-58
2021/08/15 10:55:18;;;;;;;3.85;2.92;;;;;;;39.55;13.21;93736.19;5067275;28;20108;-58
2021/08/15 10:57:47;;;;;;;3.60;3.10;;;;;;;38.33;14.74;93730.00;5091159;28;20107;-58
2021/08/15 11:00:30;;;;;;;4.20;3.80;;;;;;;37.52;16.08;93732.47;5091088;28;20046;-58
2021/08/15 11:03:00;;;;;;;4.15;3.47;;;;;;;36.58;16.09;93733.22;5090848;28;20040;-57
2021/08/15 11:05:36;;;;;;;4.00;3.53;;;;;;;35.91;17.06;93723.00;5089544;28;20016;-57
2021/08/15 11:08:03;;;;;;;5.65;3.42;;;;;;;35.26;17.75;93737.03;5092310;28;20067;-57
2021/08/15 11:11:02;;;;;;;5.45;3.40;;;;;;;34.91;18.25;93724.59;5110373;28;20428;-57
2021/08/15 11:13:30;;;;;;;4.45;3.58;;;;;;;35.00;18.81;93725.38;5112739;28;20019;-57
2021/08/15 11:16:27;;;;;;;6.17;3.30;;;;;;;36.21;17.52;93720.94;5112739;28;20023;-57
2021/08/15 11:19:08;;;;;;;5.45;3.50;;;;;;;37.66;15.27;93720.91;5112589;28;20031;-58
2021/08/15 11:22:10;;;;;;;4.68;3.30;;;;;;;38.39;15.20;93715.53;5112518;28;20689;-57
2021/08/15 11:24:45;;;;;;;8.50;3.65;;;;;;;38.42;14.84;93705.41;5112502;28;20524;-57
2021/08/15 11:27:19;;;;;;;21.38;4.03;;;;;;;38.55;14.99;93680.78;5112764;28;20097;-58
2021/08/15 11:29:47;;;;;;;4.25;3.30;;;;;;;38.54;15.00;93699.56;5111987;28;20031;-57
2021/08/15 11:32:18;;;;;;;2.88;2.67;;;;;;;38.49;15.36;93697.41;5107898;28;20396;-57
2021/08/15 11:35:08;;;;;;;3.50;3.20;;;;;;;38.67;14.28;93700.16;5097313;28;20032;-58